Time;durP1;ratioP1;P1;durP2;ratioP2;P2;SDS_P1;SDS_P2;PMS_P1;PMS_P2;Temp;Humidity;BMP_temperature;BMP_pressure;BME280_temperature;BME280_humidity;BME280_pressure;Samples;Min_cycle;Max_cycle;Signal;HPM_P1;HPM_P2
2023/10/26 00:02:00;;;;;;;;;;;;;;;;;;112446;211;43089;-39
2023/10/26 00:04:36;;;;;;;;;;;;;;;;;;112404;211;41989;-39
2023/10/26 00:07:09;;;;;;;;;;;;;;;;;;112464;211;39177;-39
2023/10/26 00:09:41;;;;;;;;;;;;;;;;;;112397;211;39696;-39
2023/10/26 00:12:16;;;;;;;;;;;;;;;;;;112452;211;42723;-39
2023/10/26 00:14:52;;;;;;;;;;;;;;;;;;112435;211;41746;-39
2023/10/26 00:17:27;;;;;;;;;;;;;;;;;;112430;211;38752;-39
2023/10/26 00:20:02;;;;;;;;;;;;;;;;;;112419;211;40921;-39
2023/10/26 00:22:34;;;;;;;;;;;;;;;;;;112499;211;42614;-39
2023/10/26 00:25:10;;;;;;;;;;;;;;;;;;112414;211;41868;-39
2023/10/26 00:27:45;;;;;;;;;;;;;;;;;;112505;211;38447;-39
2023/10/26 00:30:20;;;;;;;;;;;;;;;;;;112420;211;39628;-39
2023/10/26 00:32:56;;;;;;;;;;;;;;;;;;112422;211;42821;-38
2023/10/26 00:35:33;;;;;;;;;;;;;;;;;;112479;211;41607;-39
2023/10/26 00:38:10;;;;;;;;;;;;;;;;;;112424;211;38589;-39
2023/10/26 00:40:47;;;;;;;;;;;;;;;;;;112343;210;39259;-39
2023/10/26 00:43:26;;;;;;;;;;;;;;;;;;112415;210;42926;-39
2023/10/26 00:46:03;;;;;;;;;;;;;;;;;;112457;210;41437;-39
2023/10/26 00:48:40;;;;;;;;;;;;;;;;;;112432;211;38641;-39
2023/10/26 00:51:17;;;;;;;;;;;;;;;;;;112571;211;45620;-39
2023/10/26 00:53:52;;;;;;;;;;;;;;;;;;112294;210;42537;-39
2023/10/26 00:56:31;;;;;;;;;;;;;;;;;;112454;211;41635;-39
2023/10/26 00:59:07;;;;;;;;;;;;;;;;;;112449;210;38693;-39
2023/10/26 01:01:39;;;;;;;;;;;;;;;;;;112472;210;45893;-39
2023/10/26 01:04:17;;;;;;;;;;;;;;;;;;112452;211;42950;-39
2023/10/26 01:06:54;;;;;;;;;;;;;;;;;;112432;210;41543;-39
2023/10/26 01:09:28;;;;;;;;;;;;;;;;;;112405;210;38766;-39
2023/10/26 01:12:04;;;;;;;;;;;;;;;;;;112422;210;39519;-39
2023/10/26 01:14:36;;;;;;;;;;;;;;;;;;112471;210;42693;-39
2023/10/26 01:17:09;;;;;;;;;;;;;;;;;;112497;210;41612;-39
2023/10/26 01:19:43;;;;;;;;;;;;;;;;;;112388;210;38465;-40
2023/10/26 01:22:30;;;;;;;;;;;;;;;;;;112478;211;39388;-39
2023/10/26 01:25:11;;;;;;;;;;;;;;;;;;112453;210;42962;-39
2023/10/26 01:27:46;;;;;;;;;;;;;;;;;;112450;210;41406;-39
2023/10/26 01:30:21;;;;;;;;;;;;;;;;;;112392;210;39160;-41
2023/10/26 01:32:57;;;;;;;;;;;;;;;;;;112477;210;39419;-39
2023/10/26 01:35:40;;;;;;;;;;;;;;;;;;112433;211;42712;-39
2023/10/26 01:38:17;;;;;;;;;;;;;;;;;;112347;211;175696;-40
2023/10/26 01:40:58;;;;;;;;;;;;;;;;;;112405;211;38755;-39
2023/10/26 01:43:37;;;;;;;;;;;;;;;;;;112474;211;39286;-39
2023/10/26 01:46:11;;;;;;;;;;;;;;;;;;112458;211;42769;-40
2023/10/26 01:48:44;;;;;;;;;;;;;;;;;;112433;211;41427;-40
2023/10/26 01:51:19;;;;;;;;;;;;;;;;;;112128;211;38448;-39
2023/10/26 01:53:57;;;;;;;;;;;;;;;;;;112431;211;39457;-39
2023/10/26 01:56:36;;;;;;;;;;;;;;;;;;112458;211;43857;-39
2023/10/26 01:59:11;;;;;;;;;;;;;;;;;;112428;211;41398;-39
2023/10/26 02:01:48;;;;;;;;;;;;;;;;;;112410;211;38872;-39
2023/10/26 02:04:23;;;;;;;;;;;;;;;;;;112454;211;39571;-39
2023/10/26 02:07:00;;;;;;;;;;;;;;;;;;111789;211;913473;-39
2023/10/26 02:09:37;;;;;;;;;;;;;;;;;;112314;211;175706;-39
2023/10/26 02:12:17;;;;;;;;;;;;;;;;;;112343;211;38665;-39
2023/10/26 02:14:51;;;;;;;;;;;;;;;;;;112395;211;39518;-40
2023/10/26 02:17:25;;;;;;;;;;;;;;;;;;112447;211;42800;-39
2023/10/26 02:20:03;;;;;;;;;;;;;;;;;;112461;211;41675;-39
2023/10/26 02:22:42;;;;;;;;;;;;;;;;;;112415;211;38835;-39
2023/10/26 02:25:19;;;;;;;;;;;;;;;;;;112464;211;39885;-39
2023/10/26 02:27:53;;;;;;;;;;;;;;;;;;112438;211;42937;-39
2023/10/26 02:30:31;;;;;;;;;;;;;;;;;;112423;211;41707;-38
2023/10/26 02:33:07;;;;;;;;;;;;;;;;;;112379;211;39044;-40
2023/10/26 02:35:44;;;;;;;;;;;;;;;;;;112317;211;175718;-39
2023/10/26 02:38:21;;;;;;;;;;;;;;;;;;112396;211;42798;-39
2023/10/26 02:41:02;;;;;;;;;;;;;;;;;;112398;211;41631;-39
2023/10/26 02:43:38;;;;;;;;;;;;;;;;;;112372;211;44381;-39
2023/10/26 02:46:13;;;;;;;;;;;;;;;;;;112438;211;39590;-40
2023/10/26 02:48:49;;;;;;;;;;;;;;;;;;112436;211;42997;-39
2023/10/26 02:51:27;;;;;;;;;;;;;;;;;;112430;211;41863;-39
2023/10/26 02:53:59;;;;;;;;;;;;;;;;;;111942;211;642580;-39
2023/10/26 02:56:35;;;;;;;;;;;;;;;;;;112487;211;39818;-39
2023/10/26 02:59:08;;;;;;;;;;;;;;;;;;112460;211;43052;-40
2023/10/26 03:01:41;;;;;;;;;;;;;;;;;;112427;211;42975;-39
2023/10/26 03:04:15;;;;;;;;;;;;;;;;;;112410;211;45006;-39
2023/10/26 03:06:48;;;;;;;;;;;;;;;;;;112427;211;39666;-39
2023/10/26 03:09:23;;;;;;;;;;;;;;;;;;112461;211;42973;-39
2023/10/26 03:11:57;;;;;;;;;;;;;;;;;;112460;211;41619;-39
2023/10/26 03:14:38;;;;;;;;;;;;;;;;;;112396;211;46226;-39
2023/10/26 03:17:15;;;;;;;;;;;;;;;;;;112460;211;40083;-39
2023/10/26 03:19:48;;;;;;;;;;;;;;;;;;112425;211;44126;-41
2023/10/26 03:22:22;;;;;;;;;;;;;;;;;;112376;211;41811;-39
2023/10/26 03:24:58;;;;;;;;;;;;;;;;;;112456;211;38828;-40
2023/10/26 03:27:32;;;;;;;;;;;;;;;;;;112446;211;39684;-39
2023/10/26 03:30:07;;;;;;;;;;;;;;;;;;112464;211;43028;-39
2023/10/26 03:32:38;;;;;;;;;;;;;;;;;;112387;211;41648;-40
2023/10/26 03:35:13;;;;;;;;;;;;;;;;;;112500;211;38772;-39
2023/10/26 03:37:48;;;;;;;;;;;;;;;;;;112440;211;41200;-39
2023/10/26 03:40:22;;;;;;;;;;;;;;;;;;112531;210;42940;-38
2023/10/26 03:42:57;;;;;;;;;;;;;;;;;;112411;210;43059;-40
2023/10/26 03:45:32;;;;;;;;;;;;;;;;;;112472;210;38939;-39
2023/10/26 03:48:06;;;;;;;;;;;;;;;;;;112448;210;39705;-39
2023/10/26 03:50:41;;;;;;;;;;;;;;;;;;112433;211;44312;-40
2023/10/26 03:53:17;;;;;;;;;;;;;;;;;;112389;210;41805;-38
2023/10/26 03:55:52;;;;;;;;;;;;;;;;;;112359;210;175715;-39
2023/10/26 03:58:26;;;;;;;;;;;;;;;;;;112462;210;40074;-39
2023/10/26 04:01:01;;;;;;;;;;;;;;;;;;112430;210;42724;-39
2023/10/26 04:03:34;;;;;;;;;;;;;;;;;;112472;210;41657;-39
2023/10/26 04:06:11;;;;;;;;;;;;;;;;;;112455;210;38712;-39
2023/10/26 04:08:48;;;;;;;;;;;;;;;;;;112409;210;39432;-39
2023/10/26 04:11:25;;;;;;;;;;;;;;;;;;112403;211;42986;-39
2023/10/26 04:14:00;;;;;;;;;;;;;;;;;;112386;210;41853;-39
2023/10/26 04:16:34;;;;;;;;;;;;;;;;;;112475;210;38560;-39
2023/10/26 04:19:09;;;;;;;;;;;;;;;;;;112505;210;40158;-40
2023/10/26 04:21:42;;;;;;;;;;;;;;;;;;112473;210;43127;-39
2023/10/26 04:24:18;;;;;;;;;;;;;;;;;;112422;210;41509;-39
2023/10/26 04:26:50;;;;;;;;;;;;;;;;;;112431;210;38955;-39
2023/10/26 04:29:22;;;;;;;;;;;;;;;;;;112430;210;39632;-39
2023/10/26 04:31:55;;;;;;;;;;;;;;;;;;112420;211;43333;-40
2023/10/26 04:34:29;;;;;;;;;;;;;;;;;;112491;210;42180;-39
2023/10/26 04:37:04;;;;;;;;;;;;;;;;;;112482;210;38462;-39
2023/10/26 04:39:41;;;;;;;;;;;;;;;;;;112521;210;40890;-39
2023/10/26 04:42:13;;;;;;;;;;;;;;;;;;112492;210;43065;-38
2023/10/26 04:44:48;;;;;;;;;;;;;;;;;;112325;210;175324;-39
2023/10/26 04:47:27;;;;;;;;;;;;;;;;;;112492;210;39027;-39
2023/10/26 04:50:02;;;;;;;;;;;;;;;;;;112451;211;39321;-38
2023/10/26 04:52:38;;;;;;;;;;;;;;;;;;112504;210;42747;-39
2023/10/26 04:55:12;;;;;;;;;;;;;;;;;;112391;210;41939;-39
2023/10/26 04:57:44;;;;;;;;;;;;;;;;;;112490;210;39078;-40
2023/10/26 05:00:19;;;;;;;;;;;;;;;;;;112468;210;39767;-39
2023/10/26 05:02:53;;;;;;;;;;;;;;;;;;112439;210;42946;-39
2023/10/26 05:05:28;;;;;;;;;;;;;;;;;;112431;210;41637;-39
2023/10/26 05:08:01;;;;;;;;;;;;;;;;;;112446;211;39195;-38
2023/10/26 05:10:33;;;;;;;;;;;;;;;;;;112455;210;39675;-39
2023/10/26 05:13:10;;;;;;;;;;;;;;;;;;112468;210;44029;-38
2023/10/26 05:15:43;;;;;;;;;;;;;;;;;;112395;210;42812;-39
2023/10/26 05:18:19;;;;;;;;;;;;;;;;;;112456;210;38760;-39
2023/10/26 05:20:55;;;;;;;;;;;;;;;;;;112395;210;40046;-39
2023/10/26 05:23:28;;;;;;;;;;;;;;;;;;112516;210;42774;-39
2023/10/26 05:26:01;;;;;;;;;;;;;;;;;;112449;210;41706;-39
2023/10/26 05:28:35;;;;;;;;;;;;;;;;;;112458;210;38892;-39
2023/10/26 05:31:13;;;;;;;;;;;;;;;;;;112403;210;39547;-39
2023/10/26 05:33:47;;;;;;;;;;;;;;;;;;112436;211;42960;-39
2023/10/26 05:36:20;;;;;;;;;;;;;;;;;;112396;210;41478;-39
2023/10/26 05:38:55;;;;;;;;;;;;;;;;;;112473;210;38579;-39
2023/10/26 05:41:32;;;;;;;;;;;;;;;;;;112479;210;39465;-39
2023/10/26 05:44:04;;;;;;;;;;;;;;;;;;112447;210;42557;-39
2023/10/26 05:46:37;;;;;;;;;;;;;;;;;;112478;210;41729;-39
2023/10/26 05:49:12;;;;;;;;;;;;;;;;;;112315;210;175214;-39
2023/10/26 05:51:48;;;;;;;;;;;;;;;;;;112476;210;39307;-38
2023/10/26 05:54:22;;;;;;;;;;;;;;;;;;112440;210;42716;-38
2023/10/26 05:56:58;;;;;;;;;;;;;;;;;;112433;210;42850;-38
2023/10/26 05:59:34;;;;;;;;;;;;;;;;;;112425;210;38758;-39
2023/10/26 06:02:09;;;;;;;;;;;;;;;;;;112483;210;39676;-39
2023/10/26 06:04:44;;;;;;;;;;;;;;;;;;112448;210;42814;-39
2023/10/26 06:07:19;;;;;;;;;;;;;;;;;;112490;210;41758;-38
2023/10/26 06:09:53;;;;;;;;;;;;;;;;;;112489;210;38891;-39
2023/10/26 06:12:27;;;;;;;;;;;;;;;;;;112456;211;39834;-38
2023/10/26 06:15:00;;;;;;;;;;;;;;;;;;112371;210;175726;-38
2023/10/26 06:17:35;;;;;;;;;;;;;;;;;;112444;210;41795;-38
2023/10/26 06:20:10;;;;;;;;;;;;;;;;;;112465;210;38767;-39
2023/10/26 06:22:47;;;;;;;;;;;;;;;;;;112430;210;39811;-39
2023/10/26 06:25:22;;;;;;;;;;;;;;;;;;112484;210;42754;-39
2023/10/26 06:27:59;;;;;;;;;;;;;;;;;;112421;210;41591;-38
2023/10/26 06:30:37;;;;;;;;;;;;;;;;;;112482;210;38724;-38
2023/10/26 06:33:12;;;;;;;;;;;;;;;;;;112451;210;39265;-38
2023/10/26 06:35:44;;;;;;;;;;;;;;;;;;112485;210;43056;-39
2023/10/26 06:38:20;;;;;;;;;;;;;;;;;;112473;210;41659;-38
2023/10/26 06:40:54;;;;;;;;;;;;;;;;;;112493;211;38799;-38
2023/10/26 06:43:29;;;;;;;;;;;;;;;;;;112418;211;39797;-38
2023/10/26 06:46:03;;;;;;;;;;;;;;;;;;112442;211;42674;-38
2023/10/26 06:48:38;;;;;;;;;;;;;;;;;;112401;211;48391;-39
2023/10/26 06:51:14;;;;;;;;;;;;;;;;;;112448;211;38463;-38
2023/10/26 06:53:48;;;;;;;;;;;;;;;;;;112391;211;39626;-38
2023/10/26 06:56:23;;;;;;;;;;;;;;;;;;112437;211;43049;-38
2023/10/26 06:58:58;;;;;;;;;;;;;;;;;;112378;211;47524;-38
2023/10/26 07:01:34;;;;;;;;;;;;;;;;;;112516;211;38471;-38
2023/10/26 07:04:28;;;;;;;;;;;;;;;;;;112444;211;39412;-38
2023/10/26 07:07:09;;;;;;;;;;;;;;;;;;112391;211;42546;-38
2023/10/26 07:09:42;;;;;;;;;;;;;;;;;;112404;211;195019;-39
2023/10/26 07:12:17;;;;;;;;;;;;;;;;;;112460;211;38634;-38
2023/10/26 07:14:53;;;;;;;;;;;;;;;;;;112466;211;39828;-38
2023/10/26 07:17:27;;;;;;;;;;;;;;;;;;112352;211;42948;-35
2023/10/26 07:20:07;;;;;;;;;;;;;;;;;;112403;211;41651;-36
2023/10/26 07:22:45;;;;;;;;;;;;;;;;;;112282;211;38933;-37
2023/10/26 07:25:20;;;;;;;;;;;;;;;;;;112396;211;39463;-37
2023/10/26 07:27:53;;;;;;;;;;;;;;;;;;112423;211;43068;-37
2023/10/26 07:30:27;;;;;;;;;;;;;;;;;;112439;211;41707;-36
2023/10/26 07:33:03;;;;;;;;;;;;;;;;;;112408;211;40387;-38
2023/10/26 07:35:42;;;;;;;;;;;;;;;;;;112379;211;39386;-39
2023/10/26 07:38:14;;;;;;;;;;;;;;;;;;111650;211;894138;-34
2023/10/26 07:41:11;;;;;;;;;;;;;;;;;;112425;211;41637;-34
2023/10/26 07:43:44;;;;;;;;;;;;;;;;;;112269;211;192216;-35
2023/10/26 07:46:23;;;;;;;;;;;;;;;;;;112439;211;39587;-35
2023/10/26 07:48:55;;;;;;;;;;;;;;;;;;112408;211;43238;-35
2023/10/26 07:51:30;;;;;;;;;;;;;;;;;;112451;211;41733;-39
2023/10/26 07:54:13;;;;;;;;;;;;;;;;;;112449;211;39003;-36
2023/10/26 07:56:49;;;;;;;;;;;;;;;;;;112336;211;39543;-36
2023/10/26 07:59:28;;;;;;;;;;;;;;;;;;112369;211;42775;-35
2023/10/26 08:02:07;;;;;;;;;;;;;;;;;;112428;211;41372;-34
2023/10/26 08:04:43;;;;;;;;;;;;;;;;;;112337;211;38843;-34
2023/10/26 08:07:20;;;;;;;;;;;;;;;;;;112415;211;39743;-35
2023/10/26 08:09:54;;;;;;;;;;;;;;;;;;112343;211;43407;-35
2023/10/26 08:12:32;;;;;;;;;;;;;;;;;;112409;211;41976;-34
2023/10/26 08:15:06;;;;;;;;;;;;;;;;;;112401;211;38474;-35
2023/10/26 08:18:01;;;;;;;;;;;;;;;;;;112400;211;39627;-36
2023/10/26 08:20:37;;;;;;;;;;;;;;;;;;112260;211;48621;-37
2023/10/26 08:23:14;;;;;;;;;;;;;;;;;;112389;211;41808;-37
2023/10/26 08:25:47;;;;;;;;;;;;;;;;;;112354;211;38757;-35
2023/10/26 08:28:23;;;;;;;;;;;;;;;;;;112405;211;39691;-36
2023/10/26 08:30:57;;;;;;;;;;;;;;;;;;112361;211;48629;-35
2023/10/26 08:33:33;;;;;;;;;;;;;;;;;;112371;211;41650;-36
2023/10/26 08:36:14;;;;;;;;;;;;;;;;;;112418;211;38859;-35
2023/10/26 08:38:46;;;;;;;;;;;;;;;;;;112412;210;39729;-35
2023/10/26 08:41:21;;;;;;;;;;;;;;;;;;112374;211;44220;-35
2023/10/26 08:43:54;;;;;;;;;;;;;;;;;;112430;210;41817;-35
2023/10/26 08:46:31;;;;;;;;;;;;;;;;;;112408;210;38837;-35
2023/10/26 08:49:09;;;;;;;;;;;;;;;;;;112374;210;39457;-35
2023/10/26 08:51:46;;;;;;;;;;;;;;;;;;112425;210;43328;-35
2023/10/26 08:54:24;;;;;;;;;;;;;;;;;;112387;210;42348;-35
2023/10/26 08:57:12;;;;;;;;;;;;;;;;;;112388;210;38818;-34
2023/10/26 08:59:49;;;;;;;;;;;;;;;;;;112373;210;39590;-34
2023/10/26 09:02:22;;;;;;;;;;;;;;;;;;112375;211;42973;-34
2023/10/26 09:05:08;;;;;;;;;;;;;;;;;;112476;210;41849;-34
2023/10/26 09:07:42;;;;;;;;;;;;;;;;;;112423;210;38779;-34
2023/10/26 09:10:34;;;;;;;;;;;;;;;;;;112347;210;39872;-34
2023/10/26 09:13:08;;;;;;;;;;;;;;;;;;112414;211;42950;-34
2023/10/26 09:15:55;;;;;;;;;;;;;;;;;;112446;210;41480;-34
2023/10/26 09:18:31;;;;;;;;;;;;;;;;;;112424;210;38862;-35
2023/10/26 09:21:10;;;;;;;;;;;;;;;;;;112428;210;39280;-35
2023/10/26 09:23:48;;;;;;;;;;;;;;;;;;112421;210;42976;-35
2023/10/26 09:26:22;;;;;;;;;;;;;;;;;;112150;211;195114;-35
2023/10/26 09:28:58;;;;;;;;;;;;;;;;;;112439;210;39112;-35
2023/10/26 09:31:31;;;;;;;;;;;;;;;;;;112430;210;39749;-34
2023/10/26 09:34:11;;;;;;;;;;;;;;;;;;112385;210;42995;-34
2023/10/26 09:36:56;;;;;;;;;;;;;;;;;;112418;211;43095;-34
2023/10/26 09:39:33;;;;;;;;;;;;;;;;;;112378;210;38438;-34
2023/10/26 09:42:11;;;;;;;;;;;;;;;;;;112350;210;40595;-34
2023/10/26 09:44:48;;;;;;;;;;;;;;;;;;112423;210;44325;-36
2023/10/26 09:47:25;;;;;;;;;;;;;;;;;;112406;210;42967;-38
2023/10/26 09:50:06;;;;;;;;;;;;;;;;;;112266;211;38932;-36
2023/10/26 09:52:45;;;;;;;;;;;;;;;;;;112375;211;45203;-34
2023/10/26 09:55:23;;;;;;;;;;;;;;;;;;112447;210;43173;-35
2023/10/26 09:58:00;;;;;;;;;;;;;;;;;;112382;210;41904;-34
2023/10/26 10:00:40;;;;;;;;;;;;;;;;;;112399;210;38698;-34
2023/10/26 10:03:18;;;;;;;;;;;;;;;;;;112448;210;45815;-34
2023/10/26 10:05:51;;;;;;;;;;;;;;;;;;112384;210;42592;-36
2023/10/26 10:08:50;;;;;;;;;;;;;;;;;;112495;210;41810;-34
2023/10/26 10:11:26;;;;;;;;;;;;;;;;;;112427;210;38920;-33
2023/10/26 10:14:01;;;;;;;;;;;;;;;;;;112418;210;39676;-34
2023/10/26 10:16:53;;;;;;;;;;;;;;;;;;112408;211;42694;-34
2023/10/26 10:19:29;;;;;;;;;;;;;;;;;;112431;210;41692;-34
2023/10/26 10:22:46;;;;;;;;;;;;;;;;;;112367;210;38485;-34
2023/10/26 10:25:23;;;;;;;;;;;;;;;;;;111684;210;894934;-34
2023/10/26 10:28:14;;;;;;;;;;;;;;;;;;112477;210;42756;-35
2023/10/26 10:30:57;;;;;;;;;;;;;;;;;;112396;210;41715;-37
2023/10/26 10:33:32;;;;;;;;;;;;;;;;;;112390;210;39953;-35
2023/10/26 10:36:10;;;;;;;;;;;;;;;;;;112406;210;39740;-35
2023/10/26 10:38:46;;;;;;;;;;;;;;;;;;112417;210;42946;-35
2023/10/26 10:41:21;;;;;;;;;;;;;;;;;;112466;210;42905;-33
2023/10/26 10:44:04;;;;;;;;;;;;;;;;;;112390;210;44601;-34
2023/10/26 10:46:41;;;;;;;;;;;;;;;;;;112461;211;39686;-34
2023/10/26 10:49:19;;;;;;;;;;;;;;;;;;112453;210;42551;-34
2023/10/26 10:51:53;;;;;;;;;;;;;;;;;;112332;210;42148;-33
2023/10/26 10:54:28;;;;;;;;;;;;;;;;;;112114;210;455510;-33
2023/10/26 10:57:17;;;;;;;;;;;;;;;;;;112487;210;39832;-35
2023/10/26 10:59:55;;;;;;;;;;;;;;;;;;112440;210;42965;-35
2023/10/26 11:02:33;;;;;;;;;;;;;;;;;;112381;210;41803;-36
2023/10/26 11:05:11;;;;;;;;;;;;;;;;;;112450;210;38470;-36
2023/10/26 11:07:54;;;;;;;;;;;;;;;;;;112281;211;175606;-36
2023/10/26 11:10:28;;;;;;;;;;;;;;;;;;112410;210;42931;-36
2023/10/26 11:13:00;;;;;;;;;;;;;;;;;;112368;210;41463;-36
2023/10/26 11:15:40;;;;;;;;;;;;;;;;;;112430;210;38840;-35
2023/10/26 11:18:16;;;;;;;;;;;;;;;;;;112427;210;39580;-35
2023/10/26 11:20:51;;;;;;;;;;;;;;;;;;112424;210;43742;-35
2023/10/26 11:23:28;;;;;;;;;;;;;;;;;;112349;210;42768;-36
2023/10/26 11:26:19;;;;;;;;;;;;;;;;;;112410;210;38880;-35
2023/10/26 11:28:53;;;;;;;;;;;;;;;;;;112452;210;39635;-34
2023/10/26 11:31:53;;;;;;;;;;;;;;;;;;112474;210;44117;-35
2023/10/26 11:34:27;;;;;;;;;;;;;;;;;;112390;211;41382;-35
2023/10/26 11:37:05;;;;;;;;;;;;;;;;;;112483;210;38915;-34
2023/10/26 11:39:52;;;;;;;;;;;;;;;;;;112438;210;39878;-34
2023/10/26 11:42:46;;;;;;;;;;;;;;;;;;112393;210;44050;-34
2023/10/26 11:45:22;;;;;;;;;;;;;;;;;;112530;210;48601;-34
2023/10/26 11:47:57;;;;;;;;;;;;;;;;;;112403;210;38698;-38
2023/10/26 11:50:34;;;;;;;;;;;;;;;;;;112435;211;39477;-39
2023/10/26 11:53:11;;;;;;;;;;;;;;;;;;112433;210;44032;-33
2023/10/26 11:55:45;;;;;;;;;;;;;;;;;;112468;210;47948;-36
2023/10/26 11:58:24;;;;;;;;;;;;;;;;;;112424;211;40368;-35
2023/10/26 12:00:58;;;;;;;;;;;;;;;;;;112416;210;39710;-35
2023/10/26 12:03:31;;;;;;;;;;;;;;;;;;112388;210;42994;-35
2023/10/26 12:06:04;;;;;;;;;;;;;;;;;;112408;210;49259;-36
2023/10/26 12:08:38;;;;;;;;;;;;;;;;;;112405;211;38762;-36
2023/10/26 12:11:16;;;;;;;;;;;;;;;;;;112446;210;39745;-38
2023/10/26 12:13:54;;;;;;;;;;;;;;;;;;112370;210;42825;-35
2023/10/26 12:16:27;;;;;;;;;;;;;;;;;;112375;210;41610;-34
2023/10/26 12:19:01;;;;;;;;;;;;;;;;;;112401;211;40421;-34
2023/10/26 12:21:35;;;;;;;;;;;;;;;;;;112465;210;40064;-34
2023/10/26 12:24:09;;;;;;;;;;;;;;;;;;112331;210;43666;-35
2023/10/26 12:26:43;;;;;;;;;;;;;;;;;;112395;211;44042;-35
2023/10/26 12:29:17;;;;;;;;;;;;;;;;;;112375;210;38687;-35
2023/10/26 12:31:58;;;;;;;;;;;;;;;;;;112276;210;39706;-35
2023/10/26 12:34:29;;;;;;;;;;;;;;;;;;112461;210;42818;-36
2023/10/26 12:37:07;;;;;;;;;;;;;;;;;;112446;210;41682;-36
2023/10/26 12:39:43;;;;;;;;;;;;;;;;;;112411;211;39067;-36
2023/10/26 12:42:17;;;;;;;;;;;;;;;;;;112378;211;40377;-36
2023/10/26 12:44:51;;;;;;;;;;;;;;;;;;112397;210;43251;-35
2023/10/26 12:47:28;;;;;;;;;;;;;;;;;;112367;210;41815;-35
2023/10/26 12:50:04;;;;;;;;;;;;;;;;;;112405;211;38690;-37
2023/10/26 12:52:36;;;;;;;;;;;;;;;;;;112413;210;39685;-36
2023/10/26 12:55:13;;;;;;;;;;;;;;;;;;112366;210;42971;-40
2023/10/26 12:57:47;;;;;;;;;;;;;;;;;;112408;210;41819;-38
2023/10/26 13:00:27;;;;;;;;;;;;;;;;;;112426;211;38845;-39
2023/10/26 13:03:02;;;;;;;;;;;;;;;;;;112453;211;39571;-37
2023/10/26 13:05:37;;;;;;;;;;;;;;;;;;112438;210;42962;-37
2023/10/26 13:08:12;;;;;;;;;;;;;;;;;;112406;210;41851;-38
2023/10/26 13:10:51;;;;;;;;;;;;;;;;;;112425;211;38680;-39
2023/10/26 13:13:26;;;;;;;;;;;;;;;;;;112443;210;39488;-37
2023/10/26 13:15:59;;;;;;;;;;;;;;;;;;112363;210;42834;-37
2023/10/26 13:18:36;;;;;;;;;;;;;;;;;;112402;211;41723;-39
2023/10/26 13:21:13;;;;;;;;;;;;;;;;;;112267;210;175604;-37
2023/10/26 13:23:47;;;;;;;;;;;;;;;;;;112369;210;39713;-37
2023/10/26 13:26:23;;;;;;;;;;;;;;;;;;112313;210;42718;-37
2023/10/26 13:29:01;;;;;;;;;;;;;;;;;;112390;210;41702;-38
2023/10/26 13:31:36;;;;;;;;;;;;;;;;;;112353;210;38474;-38
2023/10/26 13:34:10;;;;;;;;;;;;;;;;;;112392;210;39616;-39
2023/10/26 13:36:45;;;;;;;;;;;;;;;;;;112385;210;42812;-40
2023/10/26 13:39:21;;;;;;;;;;;;;;;;;;112374;210;41785;-40
2023/10/26 13:41:55;;;;;;;;;;;;;;;;;;112370;211;39041;-40
2023/10/26 13:44:30;;;;;;;;;;;;;;;;;;112383;210;39695;-41
2023/10/26 13:47:08;;;;;;;;;;;;;;;;;;112343;210;42674;-42
2023/10/26 13:49:43;;;;;;;;;;;;;;;;;;112429;210;41688;-36
2023/10/26 13:52:19;;;;;;;;;;;;;;;;;;112389;210;38843;-42
2023/10/26 13:54:53;;;;;;;;;;;;;;;;;;112444;211;39975;-40
2023/10/26 13:57:26;;;;;;;;;;;;;;;;;;112399;210;42787;-40
2023/10/26 14:00:00;;;;;;;;;;;;;;;;;;112449;210;42987;-39
2023/10/26 14:02:36;;;;;;;;;;;;;;;;;;112404;211;38734;-40
2023/10/26 14:05:11;;;;;;;;;;;;;;;;;;112445;210;39627;-43
2023/10/26 14:08:01;;;;;;;;;;;;;;;;;;112421;210;44114;-40
2023/10/26 14:10:39;;;;;;;;;;;;;;;;;;112387;211;41449;-38
2023/10/26 14:13:15;;;;;;;;;;;;;;;;;;112449;210;39043;-38
2023/10/26 14:15:49;;;;;;;;;;;;;;;;;;112420;210;39762;-37
2023/10/26 14:18:30;;;;;;;;;;;;;;;;;;112407;210;42917;-37
2023/10/26 14:21:05;;;;;;;;;;;;;;;;;;112417;210;42031;-37
2023/10/26 14:23:37;;;;;;;;;;;;;;;;;;112426;210;38436;-37
2023/10/26 14:26:12;;;;;;;;;;;;;;;;;;112294;210;175636;-37
2023/10/26 14:28:46;;;;;;;;;;;;;;;;;;112410;210;48713;-37
2023/10/26 14:31:19;;;;;;;;;;;;;;;;;;112443;210;42768;-38
2023/10/26 14:33:54;;;;;;;;;;;;;;;;;;112409;210;38420;-37
2023/10/26 14:36:29;;;;;;;;;;;;;;;;;;112422;210;39618;-36
2023/10/26 14:39:04;;;;;;;;;;;;;;;;;;112392;210;48439;-37
2023/10/26 14:41:39;;;;;;;;;;;;;;;;;;112403;210;41651;-37
2023/10/26 14:44:13;;;;;;;;;;;;;;;;;;112414;210;40119;-38
2023/10/26 14:46:46;;;;;;;;;;;;;;;;;;112458;210;39659;-37
2023/10/26 14:49:23;;;;;;;;;;;;;;;;;;112528;210;49772;-36
2023/10/26 14:51:56;;;;;;;;;;;;;;;;;;112398;210;41627;-38
2023/10/26 14:54:31;;;;;;;;;;;;;;;;;;112394;210;38922;-35
2023/10/26 14:57:04;;;;;;;;;;;;;;;;;;112398;210;39814;-35
2023/10/26 14:59:39;;;;;;;;;;;;;;;;;;112541;210;48494;-36
2023/10/26 15:02:13;;;;;;;;;;;;;;;;;;112359;210;42618;-37
2023/10/26 15:04:45;;;;;;;;;;;;;;;;;;112397;210;38814;-37
2023/10/26 15:07:19;;;;;;;;;;;;;;;;;;112431;210;40890;-36
2023/10/26 15:09:52;;;;;;;;;;;;;;;;;;112392;210;48581;-36
2023/10/26 15:12:46;;;;;;;;;;;;;;;;;;112381;211;41975;-36
2023/10/26 15:15:19;;;;;;;;;;;;;;;;;;112416;210;39215;-36
2023/10/26 15:17:53;;;;;;;;;;;;;;;;;;112410;210;39777;-36
2023/10/26 15:20:29;;;;;;;;;;;;;;;;;;112525;210;41541;-36
2023/10/26 15:23:05;;;;;;;;;;;;;;;;;;112192;211;175631;-36
2023/10/26 15:25:39;;;;;;;;;;;;;;;;;;112380;211;38841;-37
2023/10/26 15:28:11;;;;;;;;;;;;;;;;;;112441;210;39550;-38
2023/10/26 15:30:45;;;;;;;;;;;;;;;;;;112398;210;42785;-37
2023/10/26 15:33:20;;;;;;;;;;;;;;;;;;112417;210;41754;-37
2023/10/26 15:36:02;;;;;;;;;;;;;;;;;;112408;211;38447;-39
2023/10/26 15:38:40;;;;;;;;;;;;;;;;;;112379;210;39768;-41
2023/10/26 15:41:15;;;;;;;;;;;;;;;;;;112402;211;42750;-37
2023/10/26 15:43:47;;;;;;;;;;;;;;;;;;112488;211;41726;-37
2023/10/26 15:46:21;;;;;;;;;;;;;;;;;;112401;210;38411;-37
2023/10/26 15:49:00;;;;;;;;;;;;;;;;;;112379;210;39621;-37
2023/10/26 15:51:54;;;;;;;;;;;;;;;;;;112387;211;43081;-37
2023/10/26 15:54:28;;;;;;;;;;;;;;;;;;112380;210;41621;-38
2023/10/26 15:57:03;;;;;;;;;;;;;;;;;;112423;210;38533;-35
2023/10/26 15:59:39;;;;;;;;;;;;;;;;;;112403;210;39703;-36
2023/10/26 16:02:11;;;;;;;;;;;;;;;;;;112430;210;42550;-37
2023/10/26 16:04:43;;;;;;;;;;;;;;;;;;112440;210;41477;-40
2023/10/26 16:07:18;;;;;;;;;;;;;;;;;;112464;210;38800;-40
2023/10/26 16:09:54;;;;;;;;;;;;;;;;;;112378;210;39911;-40
2023/10/26 16:12:29;;;;;;;;;;;;;;;;;;112406;210;42894;-40
2023/10/26 16:15:04;;;;;;;;;;;;;;;;;;112506;210;42976;-40
2023/10/26 16:17:40;;;;;;;;;;;;;;;;;;112440;210;38664;-40
2023/10/26 16:20:19;;;;;;;;;;;;;;;;;;112387;210;39238;-40
2023/10/26 16:22:53;;;;;;;;;;;;;;;;;;112444;211;42822;-40
2023/10/26 16:25:29;;;;;;;;;;;;;;;;;;112410;211;42959;-40
2023/10/26 16:28:05;;;;;;;;;;;;;;;;;;112461;210;38815;-40
2023/10/26 16:30:40;;;;;;;;;;;;;;;;;;112351;210;39837;-40
2023/10/26 16:33:15;;;;;;;;;;;;;;;;;;112422;210;42782;-40
2023/10/26 16:35:47;;;;;;;;;;;;;;;;;;112348;210;175674;-40
2023/10/26 16:38:21;;;;;;;;;;;;;;;;;;112422;210;38849;-41
2023/10/26 16:41:01;;;;;;;;;;;;;;;;;;112357;211;39810;-42
2023/10/26 16:43:34;;;;;;;;;;;;;;;;;;112324;211;175661;-40
2023/10/26 16:46:12;;;;;;;;;;;;;;;;;;112492;211;41593;-39
2023/10/26 16:48:45;;;;;;;;;;;;;;;;;;112478;211;38694;-35
2023/10/26 16:51:19;;;;;;;;;;;;;;;;;;112402;211;39677;-37
2023/10/26 16:53:52;;;;;;;;;;;;;;;;;;112431;211;43026;-37
2023/10/26 16:56:29;;;;;;;;;;;;;;;;;;112376;211;41624;-37
2023/10/26 16:59:03;;;;;;;;;;;;;;;;;;112285;211;175622;-36
2023/10/26 17:01:40;;;;;;;;;;;;;;;;;;112342;211;39594;-35
2023/10/26 17:04:12;;;;;;;;;;;;;;;;;;112377;211;44367;-38
2023/10/26 17:06:47;;;;;;;;;;;;;;;;;;112405;211;41661;-37
2023/10/26 17:09:25;;;;;;;;;;;;;;;;;;112445;211;39987;-36
2023/10/26 17:11:59;;;;;;;;;;;;;;;;;;112430;211;39648;-36
2023/10/26 17:14:34;;;;;;;;;;;;;;;;;;112267;211;43311;-38
2023/10/26 17:17:09;;;;;;;;;;;;;;;;;;112398;211;43095;-37
2023/10/26 17:19:44;;;;;;;;;;;;;;;;;;112380;211;38928;-39
2023/10/26 17:22:18;;;;;;;;;;;;;;;;;;112372;211;39837;-39
2023/10/26 17:24:53;;;;;;;;;;;;;;;;;;112411;211;44117;-36
2023/10/26 17:27:31;;;;;;;;;;;;;;;;;;112423;211;41839;-39
2023/10/26 17:30:12;;;;;;;;;;;;;;;;;;112437;211;38762;-36
2023/10/26 17:32:46;;;;;;;;;;;;;;;;;;112448;211;46001;-40
2023/10/26 17:35:20;;;;;;;;;;;;;;;;;;112402;211;45068;-39
2023/10/26 17:37:54;;;;;;;;;;;;;;;;;;112405;211;41821;-36
2023/10/26 17:40:28;;;;;;;;;;;;;;;;;;112400;210;38728;-37
2023/10/26 17:43:01;;;;;;;;;;;;;;;;;;112408;210;39734;-37
2023/10/26 17:45:39;;;;;;;;;;;;;;;;;;112369;210;42785;-37